Aviation Digital Data Service (ADDS)

Output produced by METARs form (0436 UTC 14 December 2017)
found at http://aviationweather.gov/adds/metars/
 
KLBE 140237Z 1403/1424 15006KT 1SM -SN OVC004 
     FM140500 21008KT 2SM -SN OVC008 
     FM140900 25010G20KT 3SM -SN OVC020 
     FM141100 29010G20KT P6SM VCSH OVC015 
     FM141500 30008G16KT P6SM BKN025 
     FM142000 32008KT P6SM BKN035